Time;durP1;ratioP1;P1;durP2;ratioP2;P2;SDS_P1;SDS_P2;PMS_P1;PMS_P2;Temp;Humidity;BMP_temperature;BMP_pressure;BME280_temperature;BME280_humidity;BME280_pressure;Samples;Min_cycle;Max_cycle;Signal;HPM_P1;HPM_P2
2020/12/18 00:00:09;;;;;;;215.05;99.87;;;;;;;-1.60;85.80;98993.77;1778306;80;20963;-78
2020/12/18 00:02:35;;;;;;;215.32;101.80;;;;;;;-1.61;85.88;98989.46;1778266;80;21187;-82
2020/12/18 00:05:01;;;;;;;208.93;100.35;;;;;;;-1.69;85.97;98993.52;1778160;80;20936;-82
2020/12/18 00:07:27;;;;;;;200.70;95.17;;;;;;;-1.68;85.76;98991.17;1778230;80;21074;-82
2020/12/18 00:09:53;;;;;;;189.72;92.30;;;;;;;-1.67;85.33;98996.81;1778303;80;20925;-78
2020/12/18 00:12:20;;;;;;;184.60;89.83;;;;;;;-1.76;85.17;98993.89;1747509;80;21038;-78
2020/12/18 00:14:46;;;;;;;188.30;90.32;;;;;;;-1.74;85.56;98993.20;1747758;80;21977;-82
2020/12/18 00:17:11;;;;;;;176.37;83.12;;;;;;;-1.70;85.76;99001.16;1778160;80;21003;-78
2020/12/18 00:19:38;;;;;;;169.68;79.75;;;;;;;-1.67;85.90;98999.47;1778213;80;21018;-78
2020/12/18 00:22:04;;;;;;;161.40;77.58;;;;;;;-1.65;85.94;98996.13;1778175;80;21222;-82
2020/12/18 00:24:30;;;;;;;153.68;69.55;;;;;;;-1.62;86.16;98997.11;1778277;80;21013;-83
2020/12/18 00:26:56;;;;;;;142.40;67.47;;;;;;;-1.55;86.86;99002.02;1778324;80;21248;-82
2020/12/18 00:29:22;;;;;;;125.60;63.28;;;;;;;-1.50;86.64;98994.85;1778193;80;21071;-82
2020/12/18 00:31:47;;;;;;;134.10;62.15;;;;;;;-1.47;87.35;99000.63;1747697;80;20952;-82
2020/12/18 00:34:13;;;;;;;127.53;60.33;;;;;;;-1.40;87.28;98994.09;1778228;80;21071;-78
2020/12/18 00:36:39;;;;;;;127.82;61.35;;;;;;;-1.36;86.93;98993.25;1747614;80;20904;-78
2020/12/18 00:39:06;;;;;;;139.10;61.98;;;;;;;-1.33;86.98;98998.20;1773068;80;21418;-78
2020/12/18 00:41:32;;;;;;;116.12;53.92;;;;;;;-1.29;86.62;98998.15;1778236;80;21127;-81
2020/12/18 00:43:58;;;;;;;111.47;56.37;;;;;;;-1.24;87.22;99008.58;1778072;80;21113;-81
2020/12/18 00:46:24;;;;;;;110.45;52.60;;;;;;;-1.16;86.94;99009.84;1747947;80;21031;-81
2020/12/18 00:48:51;;;;;;;108.90;52.05;;;;;;;-1.08;87.67;99006.78;1778214;80;21035;-81
2020/12/18 00:51:17;;;;;;;96.42;44.88;;;;;;;-1.01;87.13;99005.05;1778296;80;21189;-82
2020/12/18 00:53:43;;;;;;;96.15;44.77;;;;;;;-0.91;89.01;99009.10;1778097;80;21043;-78
2020/12/18 00:56:09;;;;;;;87.80;39.75;;;;;;;-0.74;88.25;99015.58;1778239;80;21146;-81
2020/12/18 00:58:35;;;;;;;103.02;45.25;;;;;;;-0.62;87.81;99012.77;1778166;80;21550;-78
2020/12/18 01:01:01;;;;;;;97.02;42.83;;;;;;;-0.57;87.86;99017.05;1773317;80;20940;-78
2020/12/18 01:03:27;;;;;;;114.45;47.73;;;;;;;-0.52;87.08;99015.98;1778114;80;21184;-82
2020/12/18 01:05:53;;;;;;;97.20;44.90;;;;;;;-0.55;86.54;99015.53;1778158;80;21039;-81
2020/12/18 01:08:19;;;;;;;100.33;47.00;;;;;;;-0.61;87.05;99008.59;1778141;80;20928;-78
2020/12/18 01:10:45;;;;;;;92.37;43.58;;;;;;;-0.57;87.62;99013.06;1778216;80;20905;-81
2020/12/18 01:13:11;;;;;;;89.22;43.78;;;;;;;-0.49;87.17;99017.47;1778169;80;21014;-81
2020/12/18 01:15:37;;;;;;;83.30;38.58;;;;;;;-0.48;87.37;99015.95;1778213;80;21247;-78
2020/12/18 01:18:02;;;;;;;86.08;37.45;;;;;;;-0.42;87.46;99021.05;1778119;80;20928;-78
2020/12/18 01:20:28;;;;;;;78.72;40.45;;;;;;;-0.37;87.88;99023.45;1778205;80;20940;-78
2020/12/18 01:22:54;;;;;;;61.83;26.33;;;;;;;-0.27;87.67;99015.17;1747612;80;20985;-78
2020/12/18 01:25:20;;;;;;;53.35;27.98;;;;;;;-0.11;86.91;99021.62;1773247;80;21136;-78
2020/12/18 01:27:46;;;;;;;57.83;27.40;;;;;;;0.04;86.86;99026.11;1778199;80;21352;-82
2020/12/18 01:30:12;;;;;;;63.75;30.37;;;;;;;0.20;86.70;99025.37;1778164;80;20873;-82
2020/12/18 01:32:38;;;;;;;58.28;26.23;;;;;;;0.34;86.46;99021.50;1778158;80;21007;-78
2020/12/18 01:35:04;;;;;;;62.58;30.48;;;;;;;0.40;86.41;99024.23;1778191;80;20905;-78
2020/12/18 01:37:30;;;;;;;57.93;27.27;;;;;;;0.46;86.34;99024.83;1778219;80;21614;-81
2020/12/18 01:39:57;;;;;;;62.38;27.15;;;;;;;0.50;86.21;99022.08;1778221;80;21200;-81
2020/12/18 01:42:23;;;;;;;54.05;24.65;;;;;;;0.59;85.61;99020.61;1778087;80;21377;-78
2020/12/18 01:44:49;;;;;;;43.08;22.05;;;;;;;0.63;85.28;99021.39;1778129;80;21214;-81
2020/12/18 01:47:28;;;;;;;35.43;15.80;;;;;;;0.68;85.11;99024.29;1778194;80;20996;-78
2020/12/18 01:49:54;;;;;;;55.15;26.95;;;;;;;0.74;84.97;99020.04;1747763;80;21059;-78
2020/12/18 01:52:22;;;;;;;53.92;25.50;;;;;;;0.78;84.61;99019.48;1747781;80;21388;-78
2020/12/18 01:54:48;;;;;;;61.85;29.02;;;;;;;0.80;84.58;99027.28;1747864;80;21262;-81
2020/12/18 01:57:13;;;;;;;42.85;19.27;;;;;;;0.80;84.49;99025.95;1778190;80;20932;-82
2020/12/18 01:59:40;;;;;;;56.48;29.27;;;;;;;0.82;84.36;99023.39;1747573;80;21008;-82
2020/12/18 02:02:05;;;;;;;43.45;19.80;;;;;;;0.83;84.45;99019.70;1778256;80;21452;-78
2020/12/18 02:04:31;;;;;;;52.73;27.65;;;;;;;0.91;84.30;99021.92;1722817;80;22182;-82
2020/12/18 02:06:57;;;;;;;59.45;29.72;;;;;;;0.90;84.29;99025.62;1778131;80;21019;-82
2020/12/18 02:09:23;;;;;;;63.92;32.38;;;;;;;0.93;84.28;99021.22;1778148;80;21531;-79
2020/12/18 02:11:49;;;;;;;64.32;32.00;;;;;;;0.90;84.11;99021.10;1778091;80;20877;-82
2020/12/18 02:14:17;;;;;;;74.32;32.73;;;;;;;0.91;84.01;99025.41;1747490;80;21075;-78
2020/12/18 02:16:43;;;;;;;66.12;32.08;;;;;;;0.86;83.73;99022.52;1747859;80;22964;-78
2020/12/18 02:19:10;;;;;;;72.62;36.88;;;;;;;0.81;83.41;99019.59;1778155;80;21102;-79
2020/12/18 02:21:39;;;;;;;63.78;30.12;;;;;;;0.77;83.54;99028.50;1747601;80;21162;-82
2020/12/18 02:24:05;;;;;;;63.60;32.20;;;;;;;0.77;83.22;99024.98;1747769;80;21479;-77
2020/12/18 02:26:30;;;;;;;72.67;37.67;;;;;;;0.68;83.37;99016.28;1747656;80;21003;-81
2020/12/18 02:28:57;;;;;;;64.60;34.20;;;;;;;0.67;83.61;99018.64;1717961;80;21270;-81
2020/12/18 02:31:23;;;;;;;51.80;25.52;;;;;;;0.64;83.50;99020.37;1747588;80;21468;-78
2020/12/18 02:33:49;;;;;;;76.45;36.10;;;;;;;0.64;83.23;99023.55;1778132;80;20944;-81
2020/12/18 02:36:24;;;;;;;75.75;36.68;;;;;;;0.61;83.36;99030.61;1747466;80;21007;-77
2020/12/18 02:38:50;;;;;;;72.53;37.03;;;;;;;0.59;83.40;99028.62;1778098;80;21528;-82
2020/12/18 02:41:16;;;;;;;82.33;38.23;;;;;;;0.55;83.29;99023.67;1747640;80;21965;-78
2020/12/18 02:43:42;;;;;;;63.28;31.73;;;;;;;0.51;83.39;99021.09;1777863;80;20987;-78
2020/12/18 02:46:08;;;;;;;88.35;43.75;;;;;;;0.51;83.28;99025.56;1747469;80;21205;-81
2020/12/18 02:48:34;;;;;;;90.42;38.85;;;;;;;0.51;83.33;99026.90;1778079;80;21051;-82
2020/12/18 02:51:00;;;;;;;85.42;40.10;;;;;;;0.51;83.61;99025.09;1778127;80;20916;-78
2020/12/18 02:53:26;;;;;;;93.92;42.83;;;;;;;0.51;83.72;99028.23;1773126;80;22742;-81
2020/12/18 02:55:52;;;;;;;105.15;49.88;;;;;;;0.53;83.79;99025.72;1778091;80;20901;-81
2020/12/18 02:58:18;;;;;;;81.08;34.60;;;;;;;0.55;83.44;99028.19;1778048;80;20912;-81
2020/12/18 03:00:44;;;;;;;134.15;53.20;;;;;;;0.52;83.40;99022.73;1778062;80;20861;-81
2020/12/18 03:03:12;;;;;;;147.68;55.45;;;;;;;0.51;83.44;99022.90;1778129;80;21650;-81
2020/12/18 03:05:38;;;;;;;126.92;52.08;;;;;;;0.52;83.59;99018.73;1778174;80;21519;-78
2020/12/18 03:08:04;;;;;;;94.05;45.48;;;;;;;0.51;83.53;99017.56;1778017;80;20924;-78
2020/12/18 03:10:30;;;;;;;79.32;31.37;;;;;;;0.55;83.41;99026.34;1778142;80;21182;-82
2020/12/18 03:12:56;;;;;;;103.42;45.08;;;;;;;0.54;83.26;99025.20;1778089;80;21138;-82
2020/12/18 03:15:22;;;;;;;86.75;43.23;;;;;;;0.48;83.58;99024.12;1778108;80;20912;-78
2020/12/18 03:17:48;;;;;;;96.00;41.20;;;;;;;0.51;83.71;99021.09;1778202;80;21198;-82
2020/12/18 03:20:14;;;;;;;80.50;41.92;;;;;;;0.55;83.77;99019.67;1778042;80;21094;-82
2020/12/18 03:22:40;;;;;;;80.97;36.23;;;;;;;0.60;83.86;99028.93;1778044;80;21015;-82
2020/12/18 03:25:06;;;;;;;73.05;36.42;;;;;;;0.64;83.78;99023.04;1778034;80;21142;-82
2020/12/18 03:27:32;;;;;;;77.80;37.93;;;;;;;0.66;83.53;99018.33;1778155;80;21437;-78
2020/12/18 03:29:58;;;;;;;69.32;34.40;;;;;;;0.66;83.51;99004.16;1747641;80;20984;-78
2020/12/18 03:32:23;;;;;;;62.08;31.52;;;;;;;0.67;83.61;99011.97;1778226;80;20990;-82
2020/12/18 03:34:50;;;;;;;59.90;29.35;;;;;;;0.69;83.80;99011.80;1778232;80;21682;-78
2020/12/18 03:37:17;;;;;;;57.15;28.47;;;;;;;0.75;83.91;99023.02;1778241;80;21194;-81
2020/12/18 03:39:43;;;;;;;58.45;27.95;;;;;;;0.83;83.64;99030.89;1778229;80;21099;-81
2020/12/18 03:42:08;;;;;;;51.23;26.97;;;;;;;0.83;83.47;99029.05;1778133;80;21167;-82
2020/12/18 03:44:34;;;;;;;62.27;32.67;;;;;;;0.86;83.33;99027.03;1778062;80;20918;-78
2020/12/18 03:47:00;;;;;;;65.10;30.90;;;;;;;0.84;83.32;99029.36;1747859;80;21577;-78
2020/12/18 03:49:26;;;;;;;60.05;30.90;;;;;;;0.87;83.47;99026.02;1747770;80;20952;-81
2020/12/18 03:51:52;;;;;;;72.45;34.83;;;;;;;0.89;83.63;99025.30;1778237;80;20972;-81
2020/12/18 03:54:18;;;;;;;63.85;31.17;;;;;;;0.92;84.05;99029.73;1778252;80;21478;-78
2020/12/18 03:56:44;;;;;;;67.85;34.58;;;;;;;0.99;83.99;99035.13;1747696;80;20920;-78
2020/12/18 03:59:10;;;;;;;69.27;34.43;;;;;;;1.02;83.84;99032.89;1778226;80;20940;-81
2020/12/18 04:01:36;;;;;;;64.32;32.83;;;;;;;1.05;83.92;99033.03;1778237;80;21122;-78
2020/12/18 04:04:01;;;;;;;64.53;31.75;;;;;;;1.11;84.13;99033.56;1778215;80;21547;-81
2020/12/18 04:06:28;;;;;;;52.38;27.42;;;;;;;1.15;83.99;99033.52;1778366;80;21292;-78
2020/12/18 04:08:53;;;;;;;53.40;27.95;;;;;;;1.15;83.55;99032.69;1778139;80;21054;-78
2020/12/18 04:11:19;;;;;;;52.27;29.07;;;;;;;1.13;83.62;99030.22;1778285;80;21606;-82
2020/12/18 04:13:45;;;;;;;54.03;28.92;;;;;;;1.10;83.48;99023.40;1778251;80;20880;-82
2020/12/18 04:16:11;;;;;;;49.42;28.12;;;;;;;1.09;83.44;99032.94;1778232;80;21016;-78
2020/12/18 04:18:37;;;;;;;53.35;28.23;;;;;;;1.09;83.68;99034.28;1778227;80;21061;-82
2020/12/18 04:21:03;;;;;;;61.63;31.02;;;;;;;1.17;83.58;99041.32;1773287;80;20916;-82
2020/12/18 04:23:29;;;;;;;65.80;30.95;;;;;;;1.18;83.64;99038.45;1778152;80;21378;-78
2020/12/18 04:25:54;;;;;;;176.97;62.10;;;;;;;1.25;83.74;99043.84;1778233;80;21534;-78
2020/12/18 04:28:20;;;;;;;207.57;69.75;;;;;;;1.29;83.59;99035.27;1778211;80;20928;-78
2020/12/18 04:30:46;;;;;;;185.32;67.70;;;;;;;1.27;83.43;99035.95;1778192;80;22094;-78
2020/12/18 04:33:12;;;;;;;137.95;53.02;;;;;;;1.23;83.48;99046.72;1778167;80;21203;-78
2020/12/18 04:35:38;;;;;;;112.85;49.15;;;;;;;1.26;83.75;99056.17;1747678;80;21562;-81
2020/12/18 04:38:05;;;;;;;73.75;36.85;;;;;;;1.30;83.75;99052.11;1778211;80;21212;-78
2020/12/18 04:40:33;;;;;;;94.72;42.75;;;;;;;1.28;83.19;99062.99;1778154;80;21115;-81
2020/12/18 04:42:59;;;;;;;88.35;45.55;;;;;;;1.28;83.03;99058.13;1778283;80;21362;-78
2020/12/18 04:45:25;;;;;;;94.52;43.83;;;;;;;1.27;82.92;99053.30;1778266;80;21074;-82
2020/12/18 04:47:51;;;;;;;90.10;41.50;;;;;;;1.23;83.07;99057.91;1778319;80;21154;-77
2020/12/18 04:50:17;;;;;;;85.17;38.42;;;;;;;1.24;83.47;99063.05;1747741;80;21154;-82
2020/12/18 04:52:43;;;;;;;82.25;33.70;;;;;;;1.29;83.47;99065.97;1778260;80;21908;-78
2020/12/18 04:55:09;;;;;;;75.55;38.85;;;;;;;1.24;83.33;99060.89;1778151;80;21208;-82
2020/12/18 04:57:35;;;;;;;65.75;39.10;;;;;;;1.16;83.55;99061.03;1778148;80;21051;-78
2020/12/18 05:00:05;;;;;;;86.12;45.70;;;;;;;1.19;83.76;99063.30;1778154;80;20936;-78
2020/12/18 05:02:31;;;;;;;66.77;35.38;;;;;;;1.18;83.55;99062.48;1778261;80;21119;-81
2020/12/18 05:04:57;;;;;;;69.10;33.65;;;;;;;1.13;83.36;99068.93;1717744;80;21001;-81
2020/12/18 05:07:23;;;;;;;81.80;43.80;;;;;;;1.12;83.43;99072.11;1778187;80;21091;-81
2020/12/18 05:09:51;;;;;;;67.27;31.57;;;;;;;1.15;83.63;99070.89;1773060;80;21294;-81
2020/12/18 05:12:17;;;;;;;69.87;34.88;;;;;;;1.19;83.64;99073.98;1778178;80;21122;-81
2020/12/18 05:14:43;;;;;;;63.90;35.15;;;;;;;1.19;83.55;99073.47;1778125;80;20983;-78
2020/12/18 05:17:09;;;;;;;73.25;38.42;;;;;;;1.23;83.68;99071.26;1778272;80;20944;-82
2020/12/18 05:19:43;;;;;;;96.47;41.20;;;;;;;1.28;83.89;99075.48;1778131;80;21463;-82
2020/12/18 05:22:12;;;;;;;85.20;40.20;;;;;;;1.39;83.49;99069.63;1749654;80;21150;-78
2020/12/18 05:24:39;;;;;;;64.72;32.73;;;;;;;1.31;83.41;99078.61;1748119;80;21122;-82
2020/12/18 05:27:06;;;;;;;68.22;33.50;;;;;;;1.36;83.28;99084.69;1778121;80;21194;-82
2020/12/18 05:29:32;;;;;;;63.65;31.90;;;;;;;1.32;83.45;99082.11;1778148;80;21524;-78
2020/12/18 05:31:59;;;;;;;62.45;31.00;;;;;;;1.36;83.24;99091.37;1778200;80;21252;-82
2020/12/18 05:34:25;;;;;;;66.10;33.20;;;;;;;1.35;83.05;99083.87;1778079;80;21039;-82
2020/12/18 05:36:51;;;;;;;61.68;33.50;;;;;;;1.34;83.34;99087.56;1778160;80;20996;-78
2020/12/18 05:39:17;;;;;;;76.85;37.98;;;;;;;1.39;83.41;99091.00;1747713;80;20936;-82
2020/12/18 05:41:46;;;;;;;73.80;42.10;;;;;;;1.44;83.40;99095.74;1778212;80;21042;-79
2020/12/18 05:44:12;;;;;;;74.47;39.45;;;;;;;1.47;83.63;99094.86;1776580;80;26953;-78
2020/12/18 05:46:39;;;;;;;86.78;43.68;;;;;;;1.51;83.50;99096.62;1778135;80;20928;-82
2020/12/18 05:49:07;;;;;;;94.40;52.95;;;;;;;1.48;83.53;99100.52;1778123;80;21035;-78
2020/12/18 05:51:38;;;;;;;69.42;39.25;;;;;;;1.50;83.63;99105.66;1777607;80;21451;-80
2020/12/18 05:54:13;;;;;;;59.83;31.95;;;;;;;1.47;83.37;99094.04;1747473;80;21056;-82
2020/12/18 05:56:41;;;;;;;58.73;34.23;;;;;;;1.41;83.37;99100.97;1747782;80;21210;-81
2020/12/18 05:59:12;;;;;;;52.93;28.52;;;;;;;1.40;83.58;99110.01;1778074;80;21150;-81
2020/12/18 06:01:40;;;;;;;54.58;30.15;;;;;;;1.36;83.73;99106.88;1778191;80;21143;-82
2020/12/18 06:04:14;;;;;;;89.47;42.48;;;;;;;1.38;83.64;99113.39;1747862;80;21063;-77
2020/12/18 06:06:42;;;;;;;116.65;53.15;;;;;;;1.37;83.69;99111.74;1777383;80;21099;-82
2020/12/18 06:09:09;;;;;;;96.85;49.98;;;;;;;1.30;83.66;99113.02;1778245;80;21412;-78
2020/12/18 06:11:35;;;;;;;106.58;54.15;;;;;;;1.28;84.12;99116.87;1778099;80;21059;-82
2020/12/18 06:14:01;;;;;;;103.42;50.40;;;;;;;1.32;83.83;99112.82;1778053;80;20943;-78
2020/12/18 06:16:27;;;;;;;91.35;46.50;;;;;;;1.32;83.65;99118.98;1778124;80;21546;-82
2020/12/18 06:18:54;;;;;;;58.65;29.45;;;;;;;1.29;83.81;99114.05;1778082;80;20911;-82
2020/12/18 06:21:20;;;;;;;52.53;28.57;;;;;;;1.27;83.74;99113.39;1778166;80;21383;-82
2020/12/18 06:23:49;;;;;;;53.48;29.75;;;;;;;1.21;83.86;99111.52;1778065;80;20932;-77
2020/12/18 06:26:18;;;;;;;56.80;32.97;;;;;;;1.20;84.12;99115.69;1778429;80;21496;-78
2020/12/18 06:28:44;;;;;;;62.93;29.75;;;;;;;1.15;84.94;99118.13;1778041;80;21150;-77
2020/12/18 06:31:26;;;;;;;57.90;31.05;;;;;;;1.18;84.37;99116.39;1747648;80;21119;-77
2020/12/18 06:33:56;;;;;;;83.85;45.60;;;;;;;1.13;85.15;99119.66;1732244;80;21589;-79
2020/12/18 06:36:51;;;;;;;78.25;44.42;;;;;;;1.19;84.99;99122.87;1778067;80;21460;-81
2020/12/18 06:39:35;;;;;;;85.57;43.30;;;;;;;1.19;84.90;99118.86;1778102;80;21062;-82
2020/12/18 06:42:29;;;;;;;87.97;44.73;;;;;;;1.19;85.33;99122.05;1778131;80;21130;-77
2020/12/18 06:44:59;;;;;;;94.10;47.27;;;;;;;1.21;84.88;99124.86;1733808;82;21064;-82
2020/12/18 06:47:29;;;;;;;96.57;47.80;;;;;;;1.26;84.89;99121.59;1734348;82;21230;-81
2020/12/18 06:50:07;;;;;;;84.77;45.78;;;;;;;1.29;84.75;99127.39;1734383;82;21492;-77
2020/12/18 06:53:08;;;;;;;81.80;42.85;;;;;;;1.29;84.61;99122.05;1734350;82;21175;-81
2020/12/18 06:55:36;;;;;;;73.30;39.55;;;;;;;1.32;84.67;99123.50;1734378;82;21128;-77
2020/12/18 06:58:13;;;;;;;80.57;43.03;;;;;;;1.36;84.65;99131.43;1704204;82;21153;-81
2020/12/18 07:00:56;;;;;;;77.03;40.00;;;;;;;1.36;84.86;99133.59;1734369;82;21954;-82
2020/12/18 07:03:38;;;;;;;69.72;36.17;;;;;;;1.40;85.10;99136.20;1734189;82;21157;-77
2020/12/18 07:06:08;;;;;;;63.50;35.50;;;;;;;1.35;84.53;99138.62;1734560;82;21565;-78
2020/12/18 07:08:36;;;;;;;81.95;41.55;;;;;;;1.28;85.15;99132.91;1703049;82;21272;-78
2020/12/18 07:11:12;;;;;;;76.95;42.03;;;;;;;1.27;85.38;99134.75;1734711;82;21135;-78
2020/12/18 07:13:51;;;;;;;94.62;45.85;;;;;;;1.31;85.47;99136.55;1703459;82;21341;-78
2020/12/18 07:16:20;;;;;;;86.42;44.33;;;;;;;1.36;85.49;99139.44;1734649;82;21064;-78
2020/12/18 07:18:46;;;;;;;76.22;41.88;;;;;;;1.36;85.94;99142.94;1704194;82;21144;-82
2020/12/18 07:21:15;;;;;;;85.70;43.08;;;;;;;1.43;85.28;99138.98;1703397;82;21147;-82
2020/12/18 07:23:43;;;;;;;100.95;51.53;;;;;;;1.42;85.42;99138.68;1734625;82;21191;-82
2020/12/18 07:26:10;;;;;;;98.50;47.88;;;;;;;1.43;85.67;99136.83;1703819;82;21956;-82
2020/12/18 07:28:37;;;;;;;99.60;50.85;;;;;;;1.45;85.57;99138.28;1734330;82;21509;-78
2020/12/18 07:31:07;;;;;;;110.08;54.55;;;;;;;1.41;85.41;99143.20;1703733;82;21080;-78
2020/12/18 07:33:32;;;;;;;100.78;52.67;;;;;;;1.40;85.82;99140.21;1730394;82;21125;-83
2020/12/18 07:35:59;;;;;;;94.90;47.30;;;;;;;1.44;86.10;99142.48;1734457;82;21031;-82
2020/12/18 07:38:27;;;;;;;112.32;54.88;;;;;;;1.49;85.67;99146.75;1703577;82;21180;-78
2020/12/18 07:40:57;;;;;;;103.53;54.77;;;;;;;1.54;85.26;99142.97;1734667;82;21124;-78
2020/12/18 07:43:29;;;;;;;78.60;40.83;;;;;;;1.55;86.04;99149.48;1734308;82;21115;-82
2020/12/18 07:45:56;;;;;;;90.45;53.65;;;;;;;1.63;85.30;99150.67;1734508;82;21465;-78
2020/12/18 07:48:43;;;;;;;81.45;45.73;;;;;;;1.57;86.16;99151.95;1734503;82;21556;-78
2020/12/18 07:51:21;;;;;;;99.45;51.85;;;;;;;1.67;85.71;99156.44;1841337;76;21515;-78
2020/12/18 07:53:53;;;;;;;103.35;51.35;;;;;;;1.74;85.69;99159.98;1867834;75;21106;-79
2020/12/18 07:56:20;;;;;;;93.62;51.68;;;;;;;1.80;85.57;99161.06;1867878;76;21079;-76
2020/12/18 07:58:56;;;;;;;95.47;55.20;;;;;;;1.77;85.64;99156.91;1867821;75;21027;-76
2020/12/18 08:01:29;;;;;;;103.87;54.65;;;;;;;1.80;85.66;99161.06;1812139;76;21023;-77
2020/12/18 08:04:23;;;;;;;103.78;57.10;;;;;;;1.73;85.98;99162.86;1867860;75;21229;-77
2020/12/18 08:06:49;;;;;;;113.42;61.75;;;;;;;1.74;85.65;99164.00;1888911;75;21096;-77
2020/12/18 08:09:16;;;;;;;92.33;50.20;;;;;;;1.76;85.55;99169.97;1867789;76;21520;-83
2020/12/18 08:11:45;;;;;;;99.25;52.05;;;;;;;1.80;85.41;99171.24;1867778;76;21024;-82
2020/12/18 08:14:12;;;;;;;100.42;54.08;;;;;;;1.82;85.31;99165.19;1867891;76;21036;-82
2020/12/18 08:16:38;;;;;;;88.58;50.10;;;;;;;1.91;85.32;99169.87;1867807;76;21296;-82
2020/12/18 08:19:06;;;;;;;119.05;61.68;;;;;;;1.97;85.32;99169.91;1867748;76;21139;-77
2020/12/18 08:21:37;;;;;;;98.85;50.83;;;;;;;2.05;85.43;99168.94;1868026;76;21092;-77
2020/12/18 08:24:15;;;;;;;90.87;47.95;;;;;;;2.08;85.29;99171.72;1867774;76;21029;-82
2020/12/18 08:26:47;;;;;;;93.60;55.52;;;;;;;2.12;85.11;99174.30;1836719;76;21037;-77
2020/12/18 08:29:13;;;;;;;98.50;55.73;;;;;;;2.15;85.14;99178.76;1852344;76;21386;-78
2020/12/18 08:31:43;;;;;;;103.50;58.28;;;;;;;2.18;85.20;99175.67;1867818;76;20894;-82
2020/12/18 08:34:11;;;;;;;97.82;56.05;;;;;;;2.24;85.19;99172.73;1867709;76;21068;-81
2020/12/18 08:36:44;;;;;;;111.43;60.27;;;;;;;2.23;84.74;99180.45;1868053;76;21092;-77
2020/12/18 08:39:11;;;;;;;103.97;61.70;;;;;;;2.21;84.65;99181.14;1867795;76;21115;-78
2020/12/18 08:41:47;;;;;;;103.75;58.08;;;;;;;2.19;84.63;99184.53;1867794;76;21532;-82
2020/12/18 08:44:16;;;;;;;156.18;84.35;;;;;;;2.18;84.85;99184.22;1838917;76;21520;-82
2020/12/18 08:46:42;;;;;;;173.50;95.25;;;;;;;2.24;84.85;99182.92;1837043;76;21021;-77
2020/12/18 08:49:15;;;;;;;95.07;51.05;;;;;;;2.31;84.82;99181.62;1867740;76;21016;-77
2020/12/18 08:51:41;;;;;;;91.95;50.63;;;;;;;2.40;84.74;99182.28;1866934;76;21045;-83
2020/12/18 08:54:34;;;;;;;88.42;51.05;;;;;;;2.40;84.71;99184.95;1867792;76;21395;-83
2020/12/18 08:57:14;;;;;;;103.02;58.05;;;;;;;2.45;84.75;99183.31;1867795;76;21105;-82
2020/12/18 08:59:42;;;;;;;110.92;65.05;;;;;;;2.53;84.81;99189.84;1867878;76;21002;-82
2020/12/18 09:02:15;;;;;;;123.35;66.30;;;;;;;2.62;84.73;99191.00;1863016;76;21124;-82
2020/12/18 09:04:41;;;;;;;131.78;71.65;;;;;;;2.68;84.47;99195.05;1836299;76;21100;-77
2020/12/18 09:07:07;;;;;;;108.60;66.00;;;;;;;2.72;84.39;99195.47;1867768;76;21182;-81
2020/12/18 09:09:33;;;;;;;128.70;77.95;;;;;;;2.77;84.29;99193.84;1867640;76;20957;-77
2020/12/18 09:12:15;;;;;;;127.58;74.05;;;;;;;2.83;84.30;99194.91;1857761;76;21402;-81
2020/12/18 09:14:41;;;;;;;112.10;65.35;;;;;;;2.87;84.18;99196.14;1836677;76;21104;-83
2020/12/18 09:17:06;;;;;;;119.28;70.37;;;;;;;2.81;83.81;99195.59;1867774;76;20898;-83
2020/12/18 09:19:36;;;;;;;134.93;81.15;;;;;;;2.85;83.94;99188.83;1867727;76;21357;-81
2020/12/18 09:22:04;;;;;;;123.20;70.95;;;;;;;2.87;83.96;99189.96;1867665;76;21088;-78
2020/12/18 09:24:29;;;;;;;120.20;69.67;;;;;;;2.90;83.85;99195.73;1866288;76;21044;-81
2020/12/18 09:27:12;;;;;;;113.17;67.25;;;;;;;2.93;83.64;99194.00;1836836;76;20894;-75
2020/12/18 09:29:39;;;;;;;120.45;67.32;;;;;;;3.01;83.76;99192.48;1836903;76;21085;-77
2020/12/18 09:32:05;;;;;;;115.95;66.40;;;;;;;3.07;83.56;99199.69;1835710;76;21560;-82
2020/12/18 09:34:32;;;;;;;120.90;71.30;;;;;;;3.13;83.76;99201.25;1867713;76;21037;-77
2020/12/18 09:37:16;;;;;;;115.62;69.15;;;;;;;3.16;83.61;99203.00;1836825;76;21153;-77
2020/12/18 09:39:41;;;;;;;137.75;84.25;;;;;;;3.22;83.60;99200.86;1867468;76;21087;-82
2020/12/18 09:42:07;;;;;;;166.55;98.60;;;;;;;3.34;83.85;99201.09;1836775;76;21096;-76
2020/12/18 09:44:33;;;;;;;164.97;103.85;;;;;;;3.36;83.66;99196.35;1836714;76;21129;-81
2020/12/18 09:46:59;;;;;;;176.53;111.15;;;;;;;3.38;83.52;99200.47;1867734;76;21041;-83
2020/12/18 09:49:25;;;;;;;259.67;145.45;;;;;;;3.43;83.49;99197.70;1867745;76;21012;-76
2020/12/18 09:51:50;;;;;;;187.57;111.00;;;;;;;3.38;83.17;99193.77;1867756;76;20942;-83
2020/12/18 09:54:16;;;;;;;232.87;122.53;;;;;;;3.40;83.25;99201.59;1867829;76;20870;-83
2020/12/18 09:56:42;;;;;;;226.18;123.45;;;;;;;3.36;82.60;99199.86;1867655;76;21792;-76
2020/12/18 09:59:08;;;;;;;186.90;101.67;;;;;;;3.34;82.91;99199.24;1867686;76;20882;-76
2020/12/18 10:01:34;;;;;;;160.63;98.72;;;;;;;3.31;82.71;99201.48;1867693;76;21574;-79
2020/12/18 10:04:00;;;;;;;149.70;87.42;;;;;;;3.19;82.53;99198.59;1867693;76;20827;-76
2020/12/18 10:06:26;;;;;;;140.30;81.40;;;;;;;3.21;82.73;99199.73;1867736;76;21567;-76
2020/12/18 10:08:52;;;;;;;135.32;81.92;;;;;;;3.27;83.02;99194.38;1867753;76;21809;-76
2020/12/18 10:11:18;;;;;;;128.25;72.67;;;;;;;3.33;83.23;99198.08;1867552;76;21081;-76
2020/12/18 10:13:44;;;;;;;104.23;55.17;;;;;;;3.42;83.40;99204.06;1836620;76;21008;-76
2020/12/18 10:16:10;;;;;;;94.97;56.37;;;;;;;3.44;83.21;99199.35;1867658;76;21132;-83
2020/12/18 10:18:36;;;;;;;98.15;61.80;;;;;;;3.40;83.21;99197.58;1836852;76;20930;-76
2020/12/18 10:21:03;;;;;;;110.05;69.75;;;;;;;3.45;83.28;99206.36;1867668;76;21222;-76
2020/12/18 10:23:32;;;;;;;115.65;74.80;;;;;;;3.46;83.39;99196.77;1867577;76;21155;-83
2020/12/18 10:25:58;;;;;;;110.48;69.53;;;;;;;3.53;83.47;99194.92;1836738;76;21116;-76
2020/12/18 10:28:27;;;;;;;134.80;77.42;;;;;;;3.55;82.91;99197.39;1867699;76;20925;-84
2020/12/18 10:30:54;;;;;;;110.40;65.15;;;;;;;3.55;82.91;99197.39;1867421;76;22423;-84
2020/12/18 10:33:20;;;;;;;139.35;87.25;;;;;;;3.55;82.87;99200.89;1867663;76;21591;-77
2020/12/18 10:35:45;;;;;;;152.93;89.72;;;;;;;3.56;82.83;99201.72;1867559;76;20930;-76
2020/12/18 10:38:11;;;;;;;150.30;91.08;;;;;;;3.51;82.60;99205.55;1836542;76;21508;-84
2020/12/18 10:40:37;;;;;;;142.70;83.80;;;;;;;3.53;82.74;99209.66;1867518;76;20909;-76
2020/12/18 10:43:04;;;;;;;120.77;71.28;;;;;;;3.58;82.67;99200.47;1857861;76;21049;-84
2020/12/18 10:45:29;;;;;;;119.02;68.22;;;;;;;3.62;82.68;99207.60;1867519;76;21163;-84
2020/12/18 10:47:55;;;;;;;119.87;69.35;;;;;;;3.66;82.75;99208.83;1836597;76;20882;-84
2020/12/18 10:50:21;;;;;;;142.37;79.60;;;;;;;3.71;82.81;99205.55;1867643;76;21033;-76
2020/12/18 10:52:47;;;;;;;146.85;86.17;;;;;;;3.76;82.72;99204.39;1867669;76;21587;-76
2020/12/18 10:55:13;;;;;;;131.15;76.12;;;;;;;3.82;83.00;99201.71;1867577;76;20986;-83
2020/12/18 10:57:39;;;;;;;141.03;78.95;;;;;;;3.92;83.16;99202.63;1867695;76;21353;-76
2020/12/18 11:00:07;;;;;;;136.35;81.63;;;;;;;3.93;82.58;99196.23;1836475;76;20866;-76
2020/12/18 11:02:35;;;;;;;144.28;86.17;;;;;;;3.92;82.67;99190.56;1867692;76;21068;-83
2020/12/18 11:05:00;;;;;;;148.68;88.30;;;;;;;3.97;82.77;99197.48;1867386;76;21473;-76
2020/12/18 11:07:26;;;;;;;120.22;74.00;;;;;;;4.02;82.60;99192.84;1867660;76;20937;-76
2020/12/18 11:09:52;;;;;;;116.90;69.72;;;;;;;4.03;82.38;99193.97;1867636;76;21320;-76
2020/12/18 11:12:18;;;;;;;116.53;69.30;;;;;;;4.01;81.76;99192.50;1836641;76;21733;-84
2020/12/18 11:14:44;;;;;;;90.25;55.80;;;;;;;4.05;82.13;99196.44;1867602;76;21144;-76
2020/12/18 11:17:10;;;;;;;95.62;53.78;;;;;;;4.09;82.06;99189.61;1867700;76;21168;-77
2020/12/18 11:19:36;;;;;;;91.92;52.65;;;;;;;4.11;81.76;99187.05;1867689;76;20918;-84
2020/12/18 11:22:03;;;;;;;93.87;52.30;;;;;;;4.17;81.81;99185.36;1867755;76;21364;-84
2020/12/18 11:24:29;;;;;;;101.58;56.40;;;;;;;4.16;81.39;99188.56;1867408;76;21156;-84